Time;durP1;ratioP1;P1;durP2;ratioP2;P2;SDS_P1;SDS_P2;PMS_P1;PMS_P2;Temp;Humidity;BMP_temperature;BMP_pressure;BME280_temperature;BME280_humidity;BME280_pressure;Samples;Min_cycle;Max_cycle;Signal;HPM_P1;HPM_P2
2022/10/24 00:04:39;;;;;;;32.23;25.90;;;;;;;9.41;88.41;100624.82;3610542;77;21217;-75
2022/10/24 00:09:31;;;;;;;29.20;23.93;;;;;;;9.42;88.72;100628.75;3532604;78;20990;-75
2022/10/24 00:14:22;;;;;;;35.55;25.32;;;;;;;9.42;88.90;100628.75;3535370;78;21217;-75
2022/10/24 00:19:13;;;;;;;29.92;23.73;;;;;;;9.42;88.92;100623.55;3595025;78;21030;-74
2022/10/24 00:24:06;;;;;;;31.48;23.32;;;;;;;9.53;89.19;100625.97;3599195;76;20892;-75
2022/10/24 00:28:57;;;;;;;30.68;23.20;;;;;;;9.53;89.19;100625.97;3573218;78;22372;-75
2022/10/24 00:33:49;;;;;;;41.60;20.57;;;;;;;9.59;89.44;100625.64;3590974;77;20991;-75
2022/10/24 00:38:41;;;;;;;30.27;20.48;;;;;;;9.63;89.65;100630.03;3586251;77;20959;-75
2022/10/24 00:43:32;;;;;;;27.35;19.37;;;;;;;9.66;89.84;100630.97;3605975;77;20920;-75
2022/10/24 00:48:40;;;;;;;33.98;20.88;;;;;;;9.69;89.83;100632.34;3624091;77;20968;-75
2022/10/24 00:53:37;;;;;;;36.70;21.07;;;;;;;9.70;89.73;100639.69;3611662;78;21277;-75
2022/10/24 00:58:32;;;;;;;38.28;20.52;;;;;;;9.72;89.91;100636.70;3621931;77;21041;-75
2022/10/24 01:03:23;;;;;;;31.65;19.20;;;;;;;9.72;89.72;100625.02;3620562;78;20979;-75
2022/10/24 01:08:30;;;;;;;29.23;21.73;;;;;;;9.72;89.86;100609.00;3552469;78;21565;-75
2022/10/24 01:13:33;;;;;;;32.95;22.20;;;;;;;9.74;89.90;100601.25;3573762;77;20921;-75
2022/10/24 01:18:37;;;;;;;32.83;21.00;;;;;;;9.76;89.94;100594.79;3636003;78;21179;-75
2022/10/24 01:24:01;;;;;;;32.53;21.52;;;;;;;9.72;89.64;100584.77;3629097;77;20928;-75
2022/10/24 01:29:19;;;;;;;30.48;20.27;;;;;;;9.72;89.95;100586.94;3582880;77;21521;-75
2022/10/24 01:34:16;;;;;;;23.50;18.85;;;;;;;9.71;89.98;100585.20;3608521;78;21026;-75
2022/10/24 01:39:12;;;;;;;23.73;19.57;;;;;;;9.69;89.98;100578.22;3588632;78;20912;-75
2022/10/24 01:44:27;;;;;;;22.90;18.27;;;;;;;9.66;89.93;100571.69;3579256;78;22009;-74
2022/10/24 01:49:22;;;;;;;23.20;19.50;;;;;;;9.65;90.00;100566.03;3607703;77;20909;-75
2022/10/24 01:54:14;;;;;;;19.55;16.12;;;;;;;9.61;89.93;100565.53;3586156;78;20894;-75
2022/10/24 01:59:29;;;;;;;21.35;18.82;;;;;;;9.52;89.67;100564.50;3531708;78;20969;-75
2022/10/24 02:04:24;;;;;;;21.50;19.07;;;;;;;9.50;89.78;100562.31;3607290;78;21018;-75
2022/10/24 02:09:18;;;;;;;25.00;19.37;;;;;;;9.47;89.92;100557.48;3631636;78;21318;-75
2022/10/24 02:14:33;;;;;;;24.47;18.62;;;;;;;9.41;89.68;100558.25;3576049;78;20930;-75
2022/10/24 02:19:24;;;;;;;22.27;18.15;;;;;;;9.28;89.55;100536.78;3590797;78;20947;-75
2022/10/24 02:24:27;;;;;;;21.68;18.07;;;;;;;9.25;89.70;100519.89;3557611;77;21770;-75
2022/10/24 02:29:33;;;;;;;22.82;19.37;;;;;;;9.25;89.63;100523.78;3618834;78;22038;-75
2022/10/24 02:34:29;;;;;;;22.25;18.12;;;;;;;9.21;89.63;100514.16;3616091;78;21168;-74
2022/10/24 02:39:22;;;;;;;24.50;20.30;;;;;;;9.11;89.21;100506.20;3614269;77;20951;-74
2022/10/24 02:44:16;;;;;;;26.25;18.32;;;;;;;9.11;89.21;100506.20;3581880;77;20988;-75
2022/10/24 02:49:07;;;;;;;25.85;18.82;;;;;;;9.06;89.31;100512.16;3612746;77;20944;-73
2022/10/24 02:54:00;;;;;;;22.55;18.77;;;;;;;8.90;89.73;100510.54;3541037;78;20951;-74
2022/10/24 02:58:51;;;;;;;20.17;17.55;;;;;;;8.87;89.00;100518.67;3552258;78;21992;-75
2022/10/24 03:03:43;;;;;;;21.37;18.05;;;;;;;8.91;89.40;100517.92;3566167;77;20944;-74
2022/10/24 03:08:34;;;;;;;23.57;19.25;;;;;;;8.91;89.40;100517.92;3593500;78;20932;-74
2022/10/24 03:13:25;;;;;;;27.17;18.75;;;;;;;8.91;89.49;100515.33;3588241;77;21516;-75
2022/10/24 03:18:16;;;;;;;25.77;19.48;;;;;;;8.92;89.74;100507.98;3513878;78;20966;-74
2022/10/24 03:23:08;;;;;;;26.93;21.52;;;;;;;9.02;90.50;100499.55;3560740;77;21853;-74
2022/10/24 03:27:59;;;;;;;21.95;18.25;;;;;;;9.02;90.50;100499.55;3475562;79;21500;-74
2022/10/24 03:32:50;;;;;;;26.90;20.92;;;;;;;9.04;90.60;100488.78;3590120;77;20975;-74
2022/10/24 03:37:43;;;;;;;28.02;22.02;;;;;;;9.10;90.89;100496.70;3630355;77;21006;-74
2022/10/24 03:42:34;;;;;;;30.80;23.92;;;;;;;9.12;91.51;100483.33;3589872;77;20977;-74
2022/10/24 03:47:26;;;;;;;29.00;22.25;;;;;;;9.23;91.68;100477.05;3489978;77;23549;-74
2022/10/24 03:52:17;;;;;;;29.05;22.30;;;;;;;9.23;91.68;100477.05;3553609;77;21324;-74
2022/10/24 03:57:09;;;;;;;35.75;25.82;;;;;;;9.27;91.61;100483.17;3568832;77;21017;-74
2022/10/24 04:02:01;;;;;;;34.92;26.10;;;;;;;9.26;91.63;100482.70;3534823;77;20910;-75
2022/10/24 04:06:52;;;;;;;29.92;24.20;;;;;;;9.25;91.70;100470.16;3602117;78;20968;-74
2022/10/24 04:11:43;;;;;;;28.07;22.17;;;;;;;9.22;91.53;100461.45;3568895;78;21102;-75
2022/10/24 04:16:35;;;;;;;30.37;24.82;;;;;;;9.21;91.44;100470.06;3547051;78;20994;-75
2022/10/24 04:21:26;;;;;;;31.05;25.57;;;;;;;9.22;91.84;100462.75;3565688;77;20952;-75
2022/10/24 04:26:18;;;;;;;31.95;24.95;;;;;;;9.24;91.79;100471.00;3570834;78;21352;-74
2022/10/24 04:31:09;;;;;;;31.82;26.65;;;;;;;9.27;91.86;100468.47;3554793;77;20999;-76
2022/10/24 04:36:01;;;;;;;32.45;24.32;;;;;;;9.30;91.66;100450.77;3532423;78;21121;-75
2022/10/24 04:40:53;;;;;;;27.62;23.70;;;;;;;9.31;91.73;100442.16;3604399;78;20946;-75
2022/10/24 04:45:45;;;;;;;33.80;24.30;;;;;;;9.30;91.68;100424.42;3559618;78;20968;-74
2022/10/24 04:50:39;;;;;;;29.35;23.75;;;;;;;9.30;91.68;100424.42;3550688;77;20987;-74
2022/10/24 04:55:47;;;;;;;28.25;23.15;;;;;;;9.27;91.81;100404.91;3586242;77;21003;-75
2022/10/24 05:01:02;;;;;;;27.90;23.62;;;;;;;9.31;91.77;100404.53;3596352;77;21549;-75
2022/10/24 05:06:14;;;;;;;32.48;23.73;;;;;;;9.32;91.74;100397.22;3513722;80;21057;-75
2022/10/24 05:11:10;;;;;;;30.23;25.53;;;;;;;9.32;91.72;100390.73;3488040;80;20983;-75
2022/10/24 05:16:01;;;;;;;27.35;22.35;;;;;;;9.35;91.99;100377.78;3486946;79;21505;-75
2022/10/24 05:20:59;;;;;;;28.73;23.80;;;;;;;9.38;91.82;100376.98;3429492;80;21070;-75
2022/10/24 05:25:50;;;;;;;28.92;21.45;;;;;;;9.39;91.86;100382.20;3525369;80;21299;-75
2022/10/24 05:30:44;;;;;;;26.23;22.05;;;;;;;9.38;91.62;100387.36;3491407;80;21010;-75
2022/10/24 05:35:36;;;;;;;28.98;21.90;;;;;;;9.38;91.75;100380.44;3389993;82;21251;-75
2022/10/24 05:40:28;;;;;;;28.62;21.25;;;;;;;9.41;91.79;100368.82;3390768;80;21648;-75
2022/10/24 05:45:21;;;;;;;23.50;20.62;;;;;;;9.44;91.86;100357.17;3603046;77;21042;-75
2022/10/24 05:50:12;;;;;;;23.00;18.67;;;;;;;9.48;91.89;100356.39;3631771;77;21203;-75
2022/10/24 05:55:05;;;;;;;24.23;20.55;;;;;;;9.50;91.87;100359.88;3557670;79;20937;-75
2022/10/24 05:59:56;;;;;;;22.80;19.73;;;;;;;9.54;91.92;100381.12;3588130;77;20908;-75
2022/10/24 06:04:49;;;;;;;26.20;21.75;;;;;;;9.58;92.09;100382.05;3556961;78;22227;-75
2022/10/24 06:09:41;;;;;;;25.65;21.10;;;;;;;9.62;92.05;100367.39;3541737;77;21137;-75
2022/10/24 06:14:32;;;;;;;26.62;22.37;;;;;;;9.67;92.11;100370.50;3598296;78;21530;-75
2022/10/24 06:19:24;;;;;;;26.50;21.52;;;;;;;9.73;92.33;100369.75;3547659;78;20979;-75
2022/10/24 06:24:15;;;;;;;25.75;21.73;;;;;;;9.79;92.26;100375.02;3557731;78;20990;-75
2022/10/24 06:29:06;;;;;;;23.27;20.57;;;;;;;9.85;92.32;100389.37;3586874;77;20964;-75
2022/10/24 06:33:57;;;;;;;27.85;22.45;;;;;;;9.92;92.33;100386.02;3541751;77;20960;-75
2022/10/24 06:38:49;;;;;;;29.57;22.70;;;;;;;9.92;92.33;100386.02;3486866;79;21438;-75
2022/10/24 06:43:41;;;;;;;28.05;23.12;;;;;;;10.09;92.61;100397.95;3562161;77;20999;-75
2022/10/24 06:48:35;;;;;;;26.80;21.60;;;;;;;10.19;92.55;100389.84;3556990;78;21198;-76
2022/10/24 06:53:26;;;;;;;30.70;25.02;;;;;;;10.25;92.53;100383.45;3556877;78;20961;-76
2022/10/24 06:58:17;;;;;;;28.17;22.58;;;;;;;10.33;92.52;100382.70;3595510;77;20990;-76
2022/10/24 07:03:14;;;;;;;27.62;23.20;;;;;;;10.36;92.57;100374.95;3561468;77;21900;-77
2022/10/24 07:08:05;;;;;;;27.05;22.32;;;;;;;10.37;92.60;100385.34;3606866;78;28286;-75
2022/10/24 07:12:56;;;;;;;27.67;22.55;;;;;;;10.37;92.58;100419.13;3559276;78;21425;-75
2022/10/24 07:17:48;;;;;;;24.57;21.90;;;;;;;10.39;92.60;100430.85;3562772;78;21007;-75
2022/10/24 07:22:39;;;;;;;27.87;21.95;;;;;;;10.46;92.63;100435.27;3490796;78;21101;-75
2022/10/24 07:27:30;;;;;;;25.55;21.55;;;;;;;10.57;92.54;100441.91;3560188;77;21887;-75
2022/10/24 07:38:03;;;;;;;29.00;23.02;;;;;;;10.77;91.98;100448.24;3448563;81;20995;-76
2022/10/24 07:43:22;;;;;;;27.27;21.55;;;;;;;10.82;92.08;100448.27;3363002;83;21009;-75
2022/10/24 07:48:11;;;;;;;29.20;23.85;;;;;;;10.80;92.02;100437.89;3331091;84;20987;-74
2022/10/24 07:53:07;;;;;;;26.50;21.37;;;;;;;10.78;92.07;100404.89;3363548;83;22526;-75
2022/10/24 07:58:10;;;;;;;;;;;;;;;10.81;92.09;100417.94;3340780;83;21023;-73
2022/10/24 08:03:06;;;;;;;23.77;19.62;;;;;;;10.81;92.12;100395.84;3300201;85;20350;-73
2022/10/24 08:08:22;;;;;;;;;;;;;;;10.85;92.15;100378.09;3325549;83;21058;-74
2022/10/24 08:13:16;;;;;;;26.77;19.40;;;;;;;10.99;92.11;100384.31;3325477;84;20496;-74
2022/10/24 08:18:11;;;;;;;24.20;18.98;;;;;;;11.17;91.71;100395.77;3305179;83;21521;-74
2022/10/24 08:23:10;;;;;;;22.02;18.95;;;;;;;11.32;91.39;100401.12;3351866;82;21051;-73
2022/10/24 08:28:03;;;;;;;23.98;19.40;;;;;;;11.39;91.26;100383.39;3342929;83;21090;-73
2022/10/24 08:32:54;;;;;;;20.17;18.07;;;;;;;11.49;91.20;100374.35;3489981;77;20998;-73
2022/10/24 08:37:46;;;;;;;21.45;19.07;;;;;;;11.66;90.58;100376.66;3532192;77;21580;-73
2022/10/24 08:42:42;;;;;;;20.62;16.48;;;;;;;11.81;90.31;100383.70;3627128;78;21055;-74
2022/10/24 08:47:58;;;;;;;19.52;17.25;;;;;;;11.96;90.06;100378.59;3607211;77;21478;-76
2022/10/24 08:58:26;;;;;;;21.80;18.00;;;;;;;12.13;89.72;100376.54;3338034;84;20975;-76
2022/10/24 09:03:59;;;;;;;21.45;19.15;;;;;;;12.33;89.76;100374.02;3293482;85;21103;-75
2022/10/24 09:09:39;;;;;;;20.02;17.98;;;;;;;12.34;89.22;100379.66;3127092;89;21675;-75
2022/10/24 09:31:44;;;;;;;21.23;18.10;;;;;;;13.07;88.21;100375.52;2976586;93;21035;-75
2022/10/24 09:42:42;;;;;;;18.05;16.25;;;;;;;13.53;87.03;100380.35;2843380;98;21101;-76
2022/10/24 09:48:17;;;;;;;;;;;;;;;;;;;;;
2022/10/24 09:53:48;;;;;;;17.25;15.43;;;;;;;14.01;85.59;100362.44;2792080;97;21742;-75
2022/10/24 10:04:47;;;;;;;19.25;15.25;;;;;;;14.03;86.00;100348.48;2795527;98;21192;-75
2022/10/24 10:09:52;;;;;;;17.07;15.20;;;;;;;14.08;85.99;100348.03;2934004;93;21687;-76
2022/10/24 10:15:09;;;;;;;17.82;14.70;;;;;;;14.19;85.32;100344.52;3067332;92;20957;-74
2022/10/24 10:20:09;;;;;;;17.90;15.20;;;;;;;14.36;84.81;100352.28;3113979;90;21077;-76
2022/10/24 10:30:57;;;;;;;16.45;14.78;;;;;;;14.47;84.43;100348.75;2829417;98;21691;-74
2022/10/24 10:42:14;;;;;;;17.07;14.30;;;;;;;14.80;83.96;100338.99;3000288;92;21034;-75
2022/10/24 10:53:37;;;;;;;15.45;13.53;;;;;;;15.34;82.81;100333.80;3007076;91;21557;-75
2022/10/24 11:05:32;;;;;;;16.27;14.50;;;;;;;15.67;81.91;100341.80;3015449;91;21130;-75
2022/10/24 11:11:13;;;;;;;14.63;13.13;;;;;;;15.73;81.50;100340.86;3040751;91;21376;-75
2022/10/24 11:16:33;;;;;;;15.58;13.50;;;;;;;15.69;81.74;100341.33;3014194;89;21086;-75
2022/10/24 11:27:30;;;;;;;14.58;13.05;;;;;;;15.96;81.38;100333.64;3369169;82;21231;-75
2022/10/24 11:50:25;;;;;;;14.07;12.30;;;;;;;15.84;81.82;100336.39;3033705;90;21153;-75
2022/10/24 11:55:30;;;;;;;14.28;12.78;;;;;;;15.89;81.65;100339.84;3109929;89;21652;-75
2022/10/24 12:00:53;;;;;;;13.10;11.65;;;;;;;15.85;81.97;100319.80;3141584;89;21005;-75
2022/10/24 12:18:26;;;;;;;11.87;10.67;;;;;;;16.82;80.92;100301.91;3269778;85;21022;-74
2022/10/24 12:23:32;;;;;;;11.78;10.53;;;;;;;17.24;81.04;100295.56;3299749;82;21057;-74
2022/10/24 12:40:50;;;;;;;;;;;;;;;;;;;;;
2022/10/24 12:51:36;;;;;;;8.75;6.58;;;;;;;18.39;78.43;100263.09;3144904;90;21106;-74
2022/10/24 12:57:34;;;;;;;9.48;7.62;;;;;;;18.26;77.71;100255.92;3139365;88;21151;-75
2022/10/24 13:03:21;;;;;;;9.65;7.65;;;;;;;18.00;77.53;100259.56;2834825;97;28347;-74
2022/10/24 13:08:35;;;;;;;11.33;8.08;;;;;;;17.64;77.71;100272.52;3001306;90;21870;-74
2022/10/24 13:14:24;;;;;;;7.75;6.50;;;;;;;17.71;77.58;100269.73;3110819;89;21014;-76
2022/10/24 13:19:26;;;;;;;7.87;6.42;;;;;;;17.71;78.27;100253.09;3136245;84;21108;-75
2022/10/24 13:30:31;;;;;;;8.85;7.60;;;;;;;17.57;78.04;100253.36;3255069;86;20998;-76
2022/10/24 13:59:08;;;;;;;;;;;;;;;;;;;;;
2022/10/24 14:09:28;;;;;;;14.95;7.60;;;;;;;16.10;79.39;100258.75;3279713;86;21097;-74
2022/10/24 14:15:39;;;;;;;;;;;;;;;;;;;;;
2022/10/24 14:26:58;;;;;;;8.55;7.33;;;;;;;15.61;81.18;100256.25;3184547;88;21080;-73
2022/10/24 14:37:34;;;;;;;11.20;6.58;;;;;;;15.22;82.35;100251.84;3083583;90;21196;-75
2022/10/24 14:53:49;;;;;;;8.35;6.55;;;;;;;14.66;83.23;100251.86;2877063;97;21084;-74
2022/10/24 14:58:51;;;;;;;14.17;8.40;;;;;;;14.42;83.28;100259.42;2879123;97;21075;-74
2022/10/24 15:03:57;;;;;;;9.00;7.50;;;;;;;14.22;83.58;100266.08;2877632;97;21089;-74
2022/10/24 15:09:14;;;;;;;8.23;7.40;;;;;;;14.05;83.98;100267.45;2879762;97;21109;-74
2022/10/24 15:14:38;;;;;;;9.15;7.03;;;;;;;13.83;84.63;100254.91;2910795;95;21052;-75
2022/10/24 15:25:24;;;;;;;10.08;8.00;;;;;;;13.53;84.83;100272.41;2871703;97;21144;-76
2022/10/24 15:30:24;;;;;;;11.83;7.58;;;;;;;13.36;85.22;100267.23;2928913;94;21137;-73
2022/10/24 15:46:13;;;;;;;8.78;7.90;;;;;;;12.99;85.78;100261.14;3134351;89;21139;-73
2022/10/24 15:51:21;;;;;;;15.23;9.05;;;;;;;12.83;85.56;100271.56;3099579;89;21085;-73
2022/10/24 15:56:36;;;;;;;10.93;8.15;;;;;;;12.71;85.89;100276.77;3127128;88;21005;-73
2022/10/24 16:02:04;;;;;;;12.35;8.85;;;;;;;12.58;85.78;100279.34;3107392;89;21053;-73
2022/10/24 16:07:39;;;;;;;10.68;9.18;;;;;;;12.49;86.01;100286.30;3026545;92;21073;-76
2022/10/24 16:19:09;;;;;;;10.00;8.85;;;;;;;12.33;86.22;100276.27;3076301;90;21622;-76
2022/10/24 16:24:24;;;;;;;12.80;10.00;;;;;;;12.22;86.34;100280.14;3234458;86;21417;-76
2022/10/24 16:29:15;;;;;;;17.48;8.98;;;;;;;12.16;86.67;100270.58;3117222;89;21284;-74
2022/10/24 16:34:55;;;;;;;11.03;9.38;;;;;;;12.13;86.74;100275.77;3132659;86;21209;-76
2022/10/24 16:45:51;;;;;;;;;;;;;;;;;;;;;
2022/10/24 16:51:04;;;;;;;12.73;11.05;;;;;;;11.92;87.01;100295.22;3016455;92;21087;-76
2022/10/24 17:01:20;;;;;;;16.02;9.80;;;;;;;11.71;87.13;100290.29;2981801;93;21116;-76
2022/10/24 17:41:12;;;;;;;12.03;10.15;;;;;;;11.23;87.46;100294.31;3029154;92;21690;-76
2022/10/24 17:46:36;;;;;;;16.00;11.63;;;;;;;11.15;87.22;100298.61;2991206;92;21718;-76
2022/10/24 17:57:53;;;;;;;;;;;;;;;;;;;;;
2022/10/24 18:09:38;;;;;;;;;;;;;;;;;;;;;
2022/10/24 18:15:46;;;;;;;;;;;;;;;;;;;;;
2022/10/24 18:21:22;;;;;;;;;;;;;;;;;;;;;
2022/10/24 18:39:57;;;;;;;;;;;;;;;;;;;;;
2022/10/24 18:57:02;;;;;;;28.15;15.58;;;;;;;10.67;88.26;100289.94;2706411;103;21389;-74
2022/10/24 19:29:42;;;;;;;19.60;12.63;;;;;;;10.68;88.66;100256.59;2902500;94;21055;-77
2022/10/24 19:34:51;;;;;;;21.93;16.20;;;;;;;10.66;88.42;100252.25;3002297;93;21075;-75
2022/10/24 19:40:57;;;;;;;19.95;14.25;;;;;;;10.65;88.62;100243.56;3037585;90;21144;-75
2022/10/24 19:45:25;;;;;;;17.07;14.95;;;;;;;10.67;88.72;100239.67;3134014;88;21034;-74
2022/10/24 19:50:18;;;;;;;18.50;13.20;;;;;;;10.63;88.68;100242.67;3155917;88;21082;-74
2022/10/24 19:55:16;;;;;;;27.25;12.98;;;;;;;10.60;88.85;100243.94;3166869;88;21060;-75
2022/10/24 20:00:30;;;;;;;22.15;14.13;;;;;;;10.57;88.76;100245.23;3184628;87;21152;-76
2022/10/24 20:05:43;;;;;;;;;;;;;;;;;;;;;
2022/10/24 20:10:35;;;;;;;19.60;17.48;;;;;;;10.54;88.89;100240.00;3282309;84;21081;-77
2022/10/24 20:32:26;;;;;;;21.23;17.42;;;;;;;10.46;89.01;100252.03;3054066;90;21202;-74
2022/10/24 20:43:42;;;;;;;16.62;14.28;;;;;;;10.45;89.47;100242.52;2784445;99;21151;-74
2022/10/24 20:48:55;;;;;;;26.02;18.82;;;;;;;10.46;89.57;100246.84;2805945;99;21768;-76
2022/10/24 20:59:33;;;;;;;26.70;19.55;;;;;;;10.51;89.74;100253.39;2572635;107;22584;-75
2022/10/24 21:27:32;;;;;;;;;;;;;;;;;;;;;
2022/10/24 21:32:55;;;;;;;;;;;;;;;;;;;;;
2022/10/24 21:44:22;;;;;;;;;;;;;;;;;;;;;
2022/10/24 23:07:17;;;;;;;35.55;26.93;;;;;;;11.30;92.39;100304.34;2557521;108;21178;-74
2022/10/24 23:12:16;;;;;;;34.20;27.42;;;;;;;11.33;92.49;100297.44;2660848;105;21141;-74
2022/10/24 23:17:12;;;;;;;34.95;25.95;;;;;;;11.35;92.55;100291.80;2688288;104;21081;-74
2022/10/24 23:22:28;;;;;;;32.83;25.23;;;;;;;11.37;92.42;100291.37;2787577;89;20981;-75
2022/10/24 23:27:37;;;;;;;36.55;27.32;;;;;;;11.38;92.56;100298.34;3200921;84;21009;-75
2022/10/24 23:32:36;;;;;;;39.15;26.33;;;;;;;11.38;92.65;100302.25;3340195;83;21478;-75
2022/10/24 23:37:37;;;;;;;33.35;25.90;;;;;;;11.39;92.67;100293.59;3327516;83;22297;-75
2022/10/24 23:42:34;;;;;;;33.00;25.92;;;;;;;11.39;92.61;100297.91;3360943;83;21007;-75
2022/10/24 23:48:11;;;;;;;29.55;24.47;;;;;;;11.41;92.58;100302.69;3319891;83;21013;-75
2022/10/24 23:53:39;;;;;;;31.57;24.25;;;;;;;11.41;92.52;100298.78;3352822;81;21406;-75
2022/10/24 23:58:32;;;;;;;35.08;24.47;;;;;;;11.39;92.55;100298.80;3575593;77;21006;-75
